sensor_id;sensor_type;location;lat;lon;timestamp;P1;durP1;ratioP1;P2;durP2;ratioP2
22234;SDS011;11286;45.596;5.284;2023-04-08T00:00:15;4.93;;;4.30;;
22234;SDS011;11286;45.596;5.284;2023-04-08T00:02:40;5.85;;;5.18;;
22234;SDS011;11286;45.596;5.284;2023-04-08T00:05:07;8.30;;;5.03;;
22234;SDS011;11286;45.596;5.284;2023-04-08T00:07:33;5.47;;;4.78;;
22234;SDS011;11286;45.596;5.284;2023-04-08T00:09:59;5.78;;;4.88;;
22234;SDS011;11286;45.596;5.284;2023-04-08T00:12:24;5.63;;;4.88;;
22234;SDS011;11286;45.596;5.284;2023-04-08T00:14:50;6.13;;;4.82;;
22234;SDS011;11286;45.596;5.284;2023-04-08T00:17:16;9.70;;;5.38;;
22234;SDS011;11286;45.596;5.284;2023-04-08T00:19:42;5.57;;;4.47;;
22234;SDS011;11286;45.596;5.284;2023-04-08T00:22:08;6.97;;;4.70;;
22234;SDS011;11286;45.596;5.284;2023-04-08T00:24:34;5.80;;;4.78;;
22234;SDS011;11286;45.596;5.284;2023-04-08T00:27:00;6.63;;;4.50;;
22234;SDS011;11286;45.596;5.284;2023-04-08T00:29:26;5.80;;;4.90;;
22234;SDS011;11286;45.596;5.284;2023-04-08T00:31:52;5.55;;;4.50;;
22234;SDS011;11286;45.596;5.284;2023-04-08T00:34:18;4.85;;;4.35;;
22234;SDS011;11286;45.596;5.284;2023-04-08T00:36:44;5.32;;;4.53;;
22234;SDS011;11286;45.596;5.284;2023-04-08T00:39:11;6.40;;;4.75;;
22234;SDS011;11286;45.596;5.284;2023-04-08T00:41:37;5.53;;;4.93;;
22234;SDS011;11286;45.596;5.284;2023-04-08T00:44:03;6.70;;;5.15;;
22234;SDS011;11286;45.596;5.284;2023-04-08T00:46:29;5.18;;;4.68;;
22234;SDS011;11286;45.596;5.284;2023-04-08T00:48:58;5.10;;;4.55;;
22234;SDS011;11286;45.596;5.284;2023-04-08T00:51:26;5.93;;;4.93;;
22234;SDS011;11286;45.596;5.284;2023-04-08T00:53:53;5.50;;;4.25;;
22234;SDS011;11286;45.596;5.284;2023-04-08T00:56:19;5.25;;;3.78;;
22234;SDS011;11286;45.596;5.284;2023-04-08T00:58:46;6.22;;;4.85;;
22234;SDS011;11286;45.596;5.284;2023-04-08T01:01:36;10.80;;;4.93;;
22234;SDS011;11286;45.596;5.284;2023-04-08T01:06:37;6.05;;;4.30;;
22234;SDS011;11286;45.596;5.284;2023-04-08T01:09:18;6.30;;;4.55;;
22234;SDS011;11286;45.596;5.284;2023-04-08T01:11:48;5.20;;;3.92;;
22234;SDS011;11286;45.596;5.284;2023-04-08T01:14:16;5.25;;;4.50;;
22234;SDS011;11286;45.596;5.284;2023-04-08T01:16:45;6.40;;;4.53;;
22234;SDS011;11286;45.596;5.284;2023-04-08T01:19:15;6.75;;;4.72;;
22234;SDS011;11286;45.596;5.284;2023-04-08T01:21:46;5.10;;;4.38;;
22234;SDS011;11286;45.596;5.284;2023-04-08T01:24:16;5.75;;;4.32;;
22234;SDS011;11286;45.596;5.284;2023-04-08T01:26:55;6.13;;;4.20;;
22234;SDS011;11286;45.596;5.284;2023-04-08T01:29:22;5.55;;;4.70;;
22234;SDS011;11286;45.596;5.284;2023-04-08T01:31:50;7.63;;;5.32;;
22234;SDS011;11286;45.596;5.284;2023-04-08T01:34:19;6.05;;;4.20;;
22234;SDS011;11286;45.596;5.284;2023-04-08T01:36:45;6.40;;;3.97;;
22234;SDS011;11286;45.596;5.284;2023-04-08T01:39:12;4.88;;;4.38;;
22234;SDS011;11286;45.596;5.284;2023-04-08T01:41:40;5.78;;;4.95;;
22234;SDS011;11286;45.596;5.284;2023-04-08T01:44:06;5.57;;;4.22;;
22234;SDS011;11286;45.596;5.284;2023-04-08T01:46:32;5.25;;;4.38;;
22234;SDS011;11286;45.596;5.284;2023-04-08T01:48:58;5.40;;;4.32;;
22234;SDS011;11286;45.596;5.284;2023-04-08T01:51:25;6.25;;;4.80;;
22234;SDS011;11286;45.596;5.284;2023-04-08T01:53:51;5.20;;;4.40;;
22234;SDS011;11286;45.596;5.284;2023-04-08T01:56:17;6.13;;;4.63;;
22234;SDS011;11286;45.596;5.284;2023-04-08T01:58:47;6.03;;;4.78;;
22234;SDS011;11286;45.596;5.284;2023-04-08T02:01:19;7.70;;;4.60;;
22234;SDS011;11286;45.596;5.284;2023-04-08T02:03:46;5.25;;;4.22;;
22234;SDS011;11286;45.596;5.284;2023-04-08T02:06:16;5.20;;;4.35;;
22234;SDS011;11286;45.596;5.284;2023-04-08T02:08:41;7.32;;;4.80;;
22234;SDS011;11286;45.596;5.284;2023-04-08T02:11:07;6.75;;;4.53;;
22234;SDS011;11286;45.596;5.284;2023-04-08T02:13:34;5.30;;;4.80;;
22234;SDS011;11286;45.596;5.284;2023-04-08T02:16:02;4.93;;;4.43;;
22234;SDS011;11286;45.596;5.284;2023-04-08T02:18:33;4.88;;;4.10;;
22234;SDS011;11286;45.596;5.284;2023-04-08T02:21:05;8.55;;;5.43;;
22234;SDS011;11286;45.596;5.284;2023-04-08T02:23:37;5.93;;;4.82;;
22234;SDS011;11286;45.596;5.284;2023-04-08T02:26:06;5.78;;;4.60;;
22234;SDS011;11286;45.596;5.284;2023-04-08T02:28:37;6.05;;;4.93;;
22234;SDS011;11286;45.596;5.284;2023-04-08T02:31:08;6.05;;;4.53;;
22234;SDS011;11286;45.596;5.284;2023-04-08T02:33:38;5.10;;;4.43;;
22234;SDS011;11286;45.596;5.284;2023-04-08T02:36:05;5.43;;;4.60;;
22234;SDS011;11286;45.596;5.284;2023-04-08T02:38:32;6.78;;;4.70;;
22234;SDS011;11286;45.596;5.284;2023-04-08T02:40:57;6.18;;;4.85;;
22234;SDS011;11286;45.596;5.284;2023-04-08T02:43:23;5.60;;;4.35;;
22234;SDS011;11286;45.596;5.284;2023-04-08T02:45:56;5.57;;;4.95;;
22234;SDS011;11286;45.596;5.284;2023-04-08T02:48:24;5.93;;;4.60;;
22234;SDS011;11286;45.596;5.284;2023-04-08T02:50:50;5.40;;;4.90;;
22234;SDS011;11286;45.596;5.284;2023-04-08T02:53:15;5.30;;;4.40;;
22234;SDS011;11286;45.596;5.284;2023-04-08T02:55:41;5.95;;;4.90;;
22234;SDS011;11286;45.596;5.284;2023-04-08T02:58:07;6.13;;;5.10;;
22234;SDS011;11286;45.596;5.284;2023-04-08T03:00:32;5.93;;;5.32;;
22234;SDS011;11286;45.596;5.284;2023-04-08T03:02:58;5.85;;;4.50;;
22234;SDS011;11286;45.596;5.284;2023-04-08T03:05:24;7.45;;;5.03;;
22234;SDS011;11286;45.596;5.284;2023-04-08T03:07:50;6.70;;;5.00;;
22234;SDS011;11286;45.596;5.284;2023-04-08T03:10:16;6.75;;;5.15;;
22234;SDS011;11286;45.596;5.284;2023-04-08T03:12:42;8.30;;;5.30;;
22234;SDS011;11286;45.596;5.284;2023-04-08T03:15:07;7.00;;;4.65;;
22234;SDS011;11286;45.596;5.284;2023-04-08T03:17:33;5.45;;;4.85;;
22234;SDS011;11286;45.596;5.284;2023-04-08T03:19:59;6.97;;;5.50;;
22234;SDS011;11286;45.596;5.284;2023-04-08T03:22:28;6.93;;;4.97;;
22234;SDS011;11286;45.596;5.284;2023-04-08T03:24:53;7.55;;;5.63;;
22234;SDS011;11286;45.596;5.284;2023-04-08T03:27:19;7.15;;;4.95;;
22234;SDS011;11286;45.596;5.284;2023-04-08T03:29:44;6.05;;;5.28;;
22234;SDS011;11286;45.596;5.284;2023-04-08T03:32:10;5.70;;;4.80;;
22234;SDS011;11286;45.596;5.284;2023-04-08T03:34:36;6.97;;;4.93;;
22234;SDS011;11286;45.596;5.284;2023-04-08T03:37:02;7.72;;;5.13;;
22234;SDS011;11286;45.596;5.284;2023-04-08T03:39:27;7.38;;;5.15;;
22234;SDS011;11286;45.596;5.284;2023-04-08T03:41:53;6.45;;;4.55;;
22234;SDS011;11286;45.596;5.284;2023-04-08T03:44:18;7.43;;;5.80;;
22234;SDS011;11286;45.596;5.284;2023-04-08T03:46:44;5.68;;;4.75;;
22234;SDS011;11286;45.596;5.284;2023-04-08T03:49:10;6.00;;;4.95;;
22234;SDS011;11286;45.596;5.284;2023-04-08T03:51:35;8.13;;;5.65;;
22234;SDS011;11286;45.596;5.284;2023-04-08T03:54:01;7.28;;;5.28;;
22234;SDS011;11286;45.596;5.284;2023-04-08T03:56:27;5.40;;;4.78;;
22234;SDS011;11286;45.596;5.284;2023-04-08T03:58:52;7.57;;;5.65;;
22234;SDS011;11286;45.596;5.284;2023-04-08T04:01:18;7.60;;;5.57;;
22234;SDS011;11286;45.596;5.284;2023-04-08T04:03:43;6.70;;;5.30;;
22234;SDS011;11286;45.596;5.284;2023-04-08T04:06:09;6.85;;;5.70;;
22234;SDS011;11286;45.596;5.284;2023-04-08T04:08:35;6.72;;;5.85;;
22234;SDS011;11286;45.596;5.284;2023-04-08T04:11:00;7.63;;;5.60;;
22234;SDS011;11286;45.596;5.284;2023-04-08T04:13:26;6.18;;;5.57;;
22234;SDS011;11286;45.596;5.284;2023-04-08T04:15:52;6.65;;;5.13;;
22234;SDS011;11286;45.596;5.284;2023-04-08T04:18:17;6.03;;;5.22;;
22234;SDS011;11286;45.596;5.284;2023-04-08T04:20:43;6.32;;;5.22;;
22234;SDS011;11286;45.596;5.284;2023-04-08T04:23:09;7.00;;;5.57;;
22234;SDS011;11286;45.596;5.284;2023-04-08T04:25:34;6.60;;;5.70;;
22234;SDS011;11286;45.596;5.284;2023-04-08T04:28:00;8.00;;;6.35;;
22234;SDS011;11286;45.596;5.284;2023-04-08T04:30:27;6.55;;;5.65;;
22234;SDS011;11286;45.596;5.284;2023-04-08T04:32:53;9.65;;;6.32;;
22234;SDS011;11286;45.596;5.284;2023-04-08T04:35:21;6.18;;;5.55;;
22234;SDS011;11286;45.596;5.284;2023-04-08T04:37:47;7.13;;;5.65;;
22234;SDS011;11286;45.596;5.284;2023-04-08T04:40:14;7.78;;;6.07;;
22234;SDS011;11286;45.596;5.284;2023-04-08T04:42:39;8.40;;;6.18;;
22234;SDS011;11286;45.596;5.284;2023-04-08T04:45:05;7.25;;;6.45;;
22234;SDS011;11286;45.596;5.284;2023-04-08T04:47:31;7.20;;;6.15;;
22234;SDS011;11286;45.596;5.284;2023-04-08T04:49:57;7.93;;;6.18;;
22234;SDS011;11286;45.596;5.284;2023-04-08T04:52:23;7.10;;;6.40;;
22234;SDS011;11286;45.596;5.284;2023-04-08T04:54:48;7.72;;;6.40;;
22234;SDS011;11286;45.596;5.284;2023-04-08T04:57:14;8.05;;;5.68;;
22234;SDS011;11286;45.596;5.284;2023-04-08T04:59:40;7.00;;;6.05;;
22234;SDS011;11286;45.596;5.284;2023-04-08T05:02:05;7.15;;;6.30;;
22234;SDS011;11286;45.596;5.284;2023-04-08T05:04:31;6.85;;;5.80;;
22234;SDS011;11286;45.596;5.284;2023-04-08T05:06:58;7.97;;;5.90;;
22234;SDS011;11286;45.596;5.284;2023-04-08T05:09:24;8.23;;;6.53;;
22234;SDS011;11286;45.596;5.284;2023-04-08T05:11:50;7.50;;;6.05;;
22234;SDS011;11286;45.596;5.284;2023-04-08T05:14:15;9.10;;;6.95;;
22234;SDS011;11286;45.596;5.284;2023-04-08T05:16:41;9.25;;;6.07;;
22234;SDS011;11286;45.596;5.284;2023-04-08T05:19:06;7.80;;;5.80;;
22234;SDS011;11286;45.596;5.284;2023-04-08T05:21:32;9.10;;;6.18;;
22234;SDS011;11286;45.596;5.284;2023-04-08T05:23:58;7.35;;;5.57;;
22234;SDS011;11286;45.596;5.284;2023-04-08T05:26:23;7.40;;;6.18;;
22234;SDS011;11286;45.596;5.284;2023-04-08T05:28:50;9.10;;;6.63;;
22234;SDS011;11286;45.596;5.284;2023-04-08T05:31:16;8.07;;;6.72;;
22234;SDS011;11286;45.596;5.284;2023-04-08T05:33:45;8.20;;;7.07;;
22234;SDS011;11286;45.596;5.284;2023-04-08T05:36:11;9.65;;;7.25;;
22234;SDS011;11286;45.596;5.284;2023-04-08T05:38:38;9.98;;;8.15;;
22234;SDS011;11286;45.596;5.284;2023-04-08T05:41:04;11.35;;;8.90;;
22234;SDS011;11286;45.596;5.284;2023-04-08T05:43:33;11.48;;;9.27;;
22234;SDS011;11286;45.596;5.284;2023-04-08T05:45:59;12.63;;;10.43;;
22234;SDS011;11286;45.596;5.284;2023-04-08T05:48:25;15.07;;;9.90;;
22234;SDS011;11286;45.596;5.284;2023-04-08T05:50:50;12.88;;;9.70;;
22234;SDS011;11286;45.596;5.284;2023-04-08T05:53:16;10.65;;;8.15;;
22234;SDS011;11286;45.596;5.284;2023-04-08T05:55:41;7.95;;;7.15;;
22234;SDS011;11286;45.596;5.284;2023-04-08T05:58:07;8.18;;;7.00;;
22234;SDS011;11286;45.596;5.284;2023-04-08T06:00:33;8.25;;;7.35;;
22234;SDS011;11286;45.596;5.284;2023-04-08T06:02:58;9.65;;;8.65;;
22234;SDS011;11286;45.596;5.284;2023-04-08T06:05:24;11.85;;;9.40;;
22234;SDS011;11286;45.596;5.284;2023-04-08T06:07:50;10.95;;;9.40;;
22234;SDS011;11286;45.596;5.284;2023-04-08T06:10:16;12.65;;;9.50;;
22234;SDS011;11286;45.596;5.284;2023-04-08T06:12:41;14.80;;;10.50;;
22234;SDS011;11286;45.596;5.284;2023-04-08T06:15:08;12.13;;;10.60;;
22234;SDS011;11286;45.596;5.284;2023-04-08T06:17:36;12.13;;;10.70;;
22234;SDS011;11286;45.596;5.284;2023-04-08T06:20:03;13.20;;;11.68;;
22234;SDS011;11286;45.596;5.284;2023-04-08T06:22:33;12.60;;;11.30;;
22234;SDS011;11286;45.596;5.284;2023-04-08T06:25:00;19.05;;;12.15;;
22234;SDS011;11286;45.596;5.284;2023-04-08T06:27:26;14.80;;;11.65;;
22234;SDS011;11286;45.596;5.284;2023-04-08T06:29:51;13.88;;;11.55;;
22234;SDS011;11286;45.596;5.284;2023-04-08T06:32:17;14.90;;;12.50;;
22234;SDS011;11286;45.596;5.284;2023-04-08T06:34:46;15.82;;;12.10;;
22234;SDS011;11286;45.596;5.284;2023-04-08T06:37:12;14.88;;;12.20;;
22234;SDS011;11286;45.596;5.284;2023-04-08T06:39:38;14.05;;;12.20;;
22234;SDS011;11286;45.596;5.284;2023-04-08T06:42:04;16.65;;;13.32;;
22234;SDS011;11286;45.596;5.284;2023-04-08T06:44:30;16.85;;;13.55;;
22234;SDS011;11286;45.596;5.284;2023-04-08T06:46:56;14.60;;;13.02;;
22234;SDS011;11286;45.596;5.284;2023-04-08T06:49:21;16.70;;;13.35;;
22234;SDS011;11286;45.596;5.284;2023-04-08T06:51:47;18.52;;;13.15;;
22234;SDS011;11286;45.596;5.284;2023-04-08T06:54:13;15.15;;;12.95;;
22234;SDS011;11286;45.596;5.284;2023-04-08T06:56:39;17.45;;;13.45;;
22234;SDS011;11286;45.596;5.284;2023-04-08T06:59:04;15.68;;;12.82;;
22234;SDS011;11286;45.596;5.284;2023-04-08T07:01:30;15.80;;;13.15;;
22234;SDS011;11286;45.596;5.284;2023-04-08T07:03:56;16.33;;;13.35;;
22234;SDS011;11286;45.596;5.284;2023-04-08T07:06:22;16.15;;;12.88;;
22234;SDS011;11286;45.596;5.284;2023-04-08T07:08:47;18.35;;;13.90;;
22234;SDS011;11286;45.596;5.284;2023-04-08T07:11:13;16.80;;;13.07;;
22234;SDS011;11286;45.596;5.284;2023-04-08T07:13:39;18.70;;;14.60;;
22234;SDS011;11286;45.596;5.284;2023-04-08T07:16:05;17.65;;;14.50;;
22234;SDS011;11286;45.596;5.284;2023-04-08T07:18:31;15.13;;;12.40;;
22234;SDS011;11286;45.596;5.284;2023-04-08T07:20:58;15.05;;;12.10;;
22234;SDS011;11286;45.596;5.284;2023-04-08T07:23:25;21.73;;;17.77;;
22234;SDS011;11286;45.596;5.284;2023-04-08T07:25:51;13.13;;;10.77;;
22234;SDS011;11286;45.596;5.284;2023-04-08T07:28:17;13.23;;;10.48;;
22234;SDS011;11286;45.596;5.284;2023-04-08T07:30:43;29.70;;;21.70;;
22234;SDS011;11286;45.596;5.284;2023-04-08T07:33:09;18.55;;;14.30;;
22234;SDS011;11286;45.596;5.284;2023-04-08T07:35:35;19.35;;;14.82;;
22234;SDS011;11286;45.596;5.284;2023-04-08T07:38:01;23.08;;;19.08;;
22234;SDS011;11286;45.596;5.284;2023-04-08T07:40:26;19.38;;;15.23;;
22234;SDS011;11286;45.596;5.284;2023-04-08T07:42:52;13.82;;;12.18;;
22234;SDS011;11286;45.596;5.284;2023-04-08T07:45:18;13.15;;;10.32;;
22234;SDS011;11286;45.596;5.284;2023-04-08T07:47:44;15.10;;;10.88;;
22234;SDS011;11286;45.596;5.284;2023-04-08T07:50:11;12.88;;;11.32;;
22234;SDS011;11286;45.596;5.284;2023-04-08T07:52:37;12.38;;;10.65;;
22234;SDS011;11286;45.596;5.284;2023-04-08T07:55:02;11.55;;;10.00;;
22234;SDS011;11286;45.596;5.284;2023-04-08T07:57:29;12.05;;;10.05;;
22234;SDS011;11286;45.596;5.284;2023-04-08T07:59:55;11.60;;;10.27;;
22234;SDS011;11286;45.596;5.284;2023-04-08T08:02:21;11.95;;;10.02;;
22234;SDS011;11286;45.596;5.284;2023-04-08T08:04:47;11.40;;;10.20;;
22234;SDS011;11286;45.596;5.284;2023-04-08T08:07:12;10.48;;;9.38;;
22234;SDS011;11286;45.596;5.284;2023-04-08T08:09:38;13.50;;;10.60;;
22234;SDS011;11286;45.596;5.284;2023-04-08T08:12:04;12.73;;;10.68;;
22234;SDS011;11286;45.596;5.284;2023-04-08T08:14:29;15.15;;;12.35;;
22234;SDS011;11286;45.596;5.284;2023-04-08T08:16:55;14.65;;;12.30;;
22234;SDS011;11286;45.596;5.284;2023-04-08T08:19:21;12.82;;;11.52;;
22234;SDS011;11286;45.596;5.284;2023-04-08T08:21:46;13.60;;;11.52;;
22234;SDS011;11286;45.596;5.284;2023-04-08T08:24:12;12.82;;;10.80;;
22234;SDS011;11286;45.596;5.284;2023-04-08T08:26:38;12.77;;;11.05;;
22234;SDS011;11286;45.596;5.284;2023-04-08T08:29:04;11.77;;;9.90;;
22234;SDS011;11286;45.596;5.284;2023-04-08T08:31:32;11.10;;;9.73;;
22234;SDS011;11286;45.596;5.284;2023-04-08T08:33:58;10.35;;;9.05;;
22234;SDS011;11286;45.596;5.284;2023-04-08T08:36:24;12.60;;;10.30;;
22234;SDS011;11286;45.596;5.284;2023-04-08T08:38:51;11.18;;;9.80;;
22234;SDS011;11286;45.596;5.284;2023-04-08T08:41:18;13.55;;;9.90;;
22234;SDS011;11286;45.596;5.284;2023-04-08T08:43:44;13.73;;;9.85;;
22234;SDS011;11286;45.596;5.284;2023-04-08T08:46:11;11.80;;;9.27;;
22234;SDS011;11286;45.596;5.284;2023-04-08T08:48:40;9.68;;;8.68;;
22234;SDS011;11286;45.596;5.284;2023-04-08T08:51:09;11.00;;;9.57;;
22234;SDS011;11286;45.596;5.284;2023-04-08T08:53:36;10.32;;;8.85;;
22234;SDS011;11286;45.596;5.284;2023-04-08T08:56:02;11.55;;;9.60;;
22234;SDS011;11286;45.596;5.284;2023-04-08T08:58:29;11.65;;;9.95;;
22234;SDS011;11286;45.596;5.284;2023-04-08T09:00:57;11.23;;;10.05;;
22234;SDS011;11286;45.596;5.284;2023-04-08T09:03:26;11.10;;;9.90;;
22234;SDS011;11286;45.596;5.284;2023-04-08T09:05:56;10.52;;;9.27;;
22234;SDS011;11286;45.596;5.284;2023-04-08T09:08:26;19.52;;;16.85;;
22234;SDS011;11286;45.596;5.284;2023-04-08T09:13:41;11.20;;;9.77;;
22234;SDS011;11286;45.596;5.284;2023-04-08T09:16:11;12.07;;;10.88;;
22234;SDS011;11286;45.596;5.284;2023-04-08T09:18:39;11.25;;;10.15;;
22234;SDS011;11286;45.596;5.284;2023-04-08T09:21:07;11.77;;;9.90;;
22234;SDS011;11286;45.596;5.284;2023-04-08T09:23:42;10.90;;;9.90;;
22234;SDS011;11286;45.596;5.284;2023-04-08T09:26:16;10.80;;;9.68;;
22234;SDS011;11286;45.596;5.284;2023-04-08T09:28:44;12.32;;;10.30;;
22234;SDS011;11286;45.596;5.284;2023-04-08T09:31:39;10.80;;;9.80;;
22234;SDS011;11286;45.596;5.284;2023-04-08T09:34:12;11.10;;;10.00;;
22234;SDS011;11286;45.596;5.284;2023-04-08T09:36:40;11.30;;;10.20;;
22234;SDS011;11286;45.596;5.284;2023-04-08T09:39:06;11.68;;;9.88;;
22234;SDS011;11286;45.596;5.284;2023-04-08T09:41:35;12.80;;;10.82;;
22234;SDS011;11286;45.596;5.284;2023-04-08T09:44:03;11.32;;;10.07;;
22234;SDS011;11286;45.596;5.284;2023-04-08T09:49:12;12.77;;;11.50;;
22234;SDS011;11286;45.596;5.284;2023-04-08T09:57:34;11.80;;;10.70;;
22234;SDS011;11286;45.596;5.284;2023-04-08T10:00:11;10.57;;;9.40;;
22234;SDS011;11286;45.596;5.284;2023-04-08T10:02:54;10.05;;;9.05;;
22234;SDS011;11286;45.596;5.284;2023-04-08T10:05:27;9.68;;;8.52;;
22234;SDS011;11286;45.596;5.284;2023-04-08T10:07:54;9.88;;;8.98;;
22234;SDS011;11286;45.596;5.284;2023-04-08T10:10:21;8.75;;;7.95;;
22234;SDS011;11286;45.596;5.284;2023-04-08T10:12:47;8.98;;;8.18;;
22234;SDS011;11286;45.596;5.284;2023-04-08T10:15:21;8.82;;;7.93;;
22234;SDS011;11286;45.596;5.284;2023-04-08T10:18:36;8.93;;;8.00;;
22234;SDS011;11286;45.596;5.284;2023-04-08T10:25:34;8.63;;;7.78;;
22234;SDS011;11286;45.596;5.284;2023-04-08T10:35:54;7.95;;;7.25;;
22234;SDS011;11286;45.596;5.284;2023-04-08T10:38:36;7.57;;;6.82;;
22234;SDS011;11286;45.596;5.284;2023-04-08T10:41:03;7.00;;;6.30;;
22234;SDS011;11286;45.596;5.284;2023-04-08T10:43:32;7.10;;;6.50;;
22234;SDS011;11286;45.596;5.284;2023-04-08T10:45:58;7.53;;;6.80;;
22234;SDS011;11286;45.596;5.284;2023-04-08T10:48:25;6.25;;;5.72;;
22234;SDS011;11286;45.596;5.284;2023-04-08T10:50:59;8.10;;;6.65;;
22234;SDS011;11286;45.596;5.284;2023-04-08T10:55:54;7.15;;;6.45;;
22234;SDS011;11286;45.596;5.284;2023-04-08T10:58:31;5.68;;;4.70;;
22234;SDS011;11286;45.596;5.284;2023-04-08T11:01:06;6.05;;;5.55;;
22234;SDS011;11286;45.596;5.284;2023-04-08T11:03:32;4.95;;;4.22;;
22234;SDS011;11286;45.596;5.284;2023-04-08T11:05:59;4.95;;;4.55;;
22234;SDS011;11286;45.596;5.284;2023-04-08T11:08:32;5.95;;;5.22;;
22234;SDS011;11286;45.596;5.284;2023-04-08T11:10:59;5.47;;;4.97;;
22234;SDS011;11286;45.596;5.284;2023-04-08T11:13:38;5.82;;;5.25;;
22234;SDS011;11286;45.596;5.284;2023-04-08T11:16:08;6.00;;;5.43;;
22234;SDS011;11286;45.596;5.284;2023-04-08T11:18:34;5.65;;;5.07;;
22234;SDS011;11286;45.596;5.284;2023-04-08T11:21:03;5.57;;;5.07;;
22234;SDS011;11286;45.596;5.284;2023-04-08T11:23:33;4.65;;;4.35;;
22234;SDS011;11286;45.596;5.284;2023-04-08T11:25:58;5.47;;;5.03;;
22234;SDS011;11286;45.596;5.284;2023-04-08T11:28:25;5.55;;;5.05;;
22234;SDS011;11286;45.596;5.284;2023-04-08T11:30:51;5.10;;;4.70;;
22234;SDS011;11286;45.596;5.284;2023-04-08T11:33:18;5.40;;;4.40;;
22234;SDS011;11286;45.596;5.284;2023-04-08T11:35:44;5.22;;;4.72;;
22234;SDS011;11286;45.596;5.284;2023-04-08T11:38:10;5.35;;;4.85;;
22234;SDS011;11286;45.596;5.284;2023-04-08T11:40:36;6.25;;;5.75;;
22234;SDS011;11286;45.596;5.284;2023-04-08T11:43:09;5.18;;;4.68;;
22234;SDS011;11286;45.596;5.284;2023-04-08T11:45:38;5.07;;;4.68;;
22234;SDS011;11286;45.596;5.284;2023-04-08T11:48:09;5.20;;;4.70;;
22234;SDS011;11286;45.596;5.284;2023-04-08T11:50:35;5.80;;;5.30;;
22234;SDS011;11286;45.596;5.284;2023-04-08T11:53:01;5.05;;;4.60;;
22234;SDS011;11286;45.596;5.284;2023-04-08T11:55:30;4.75;;;4.10;;
22234;SDS011;11286;45.596;5.284;2023-04-08T11:58:03;4.70;;;4.40;;
22234;SDS011;11286;45.596;5.284;2023-04-08T12:00:30;5.22;;;4.80;;
22234;SDS011;11286;45.596;5.284;2023-04-08T12:02:57;4.80;;;4.40;;
22234;SDS011;11286;45.596;5.284;2023-04-08T12:05:22;5.32;;;4.63;;
22234;SDS011;11286;45.596;5.284;2023-04-08T12:07:48;4.50;;;4.10;;
22234;SDS011;11286;45.596;5.284;2023-04-08T12:10:14;4.10;;;3.80;;
22234;SDS011;11286;45.596;5.284;2023-04-08T12:12:39;4.00;;;2.92;;
22234;SDS011;11286;45.596;5.284;2023-04-08T12:15:06;3.08;;;2.85;;
22234;SDS011;11286;45.596;5.284;2023-04-08T12:17:32;3.10;;;2.90;;
22234;SDS011;11286;45.596;5.284;2023-04-08T12:19:58;3.17;;;2.90;;
22234;SDS011;11286;45.596;5.284;2023-04-08T12:22:24;2.80;;;2.60;;
22234;SDS011;11286;45.596;5.284;2023-04-08T12:24:50;2.63;;;2.42;;
22234;SDS011;11286;45.596;5.284;2023-04-08T12:27:15;4.15;;;2.72;;
22234;SDS011;11286;45.596;5.284;2023-04-08T12:29:41;2.83;;;2.58;;
22234;SDS011;11286;45.596;5.284;2023-04-08T12:32:07;2.63;;;2.42;;
22234;SDS011;11286;45.596;5.284;2023-04-08T12:34:33;2.60;;;2.40;;
22234;SDS011;11286;45.596;5.284;2023-04-08T12:36:59;2.92;;;2.67;;
22234;SDS011;11286;45.596;5.284;2023-04-08T12:39:24;3.10;;;2.88;;
22234;SDS011;11286;45.596;5.284;2023-04-08T12:41:50;3.20;;;2.90;;
22234;SDS011;11286;45.596;5.284;2023-04-08T12:44:16;4.53;;;2.72;;
22234;SDS011;11286;45.596;5.284;2023-04-08T12:46:42;3.08;;;2.78;;
22234;SDS011;11286;45.596;5.284;2023-04-08T12:49:07;2.53;;;2.33;;
22234;SDS011;11286;45.596;5.284;2023-04-08T12:51:33;2.75;;;2.55;;
22234;SDS011;11286;45.596;5.284;2023-04-08T12:54:00;2.85;;;2.53;;
22234;SDS011;11286;45.596;5.284;2023-04-08T12:56:27;3.47;;;2.60;;
22234;SDS011;11286;45.596;5.284;2023-04-08T12:58:53;2.55;;;2.35;;
22234;SDS011;11286;45.596;5.284;2023-04-08T13:01:20;2.95;;;2.17;;
22234;SDS011;11286;45.596;5.284;2023-04-08T13:03:46;2.75;;;2.55;;
22234;SDS011;11286;45.596;5.284;2023-04-08T13:06:12;2.70;;;2.50;;
22234;SDS011;11286;45.596;5.284;2023-04-08T13:08:38;2.63;;;2.25;;
22234;SDS011;11286;45.596;5.284;2023-04-08T13:11:03;2.42;;;2.22;;
22234;SDS011;11286;45.596;5.284;2023-04-08T13:13:29;2.90;;;2.60;;
22234;SDS011;11286;45.596;5.284;2023-04-08T13:15:55;2.85;;;2.50;;
22234;SDS011;11286;45.596;5.284;2023-04-08T13:18:21;3.00;;;2.80;;
22234;SDS011;11286;45.596;5.284;2023-04-08T13:20:46;2.92;;;2.10;;
22234;SDS011;11286;45.596;5.284;2023-04-08T13:23:12;2.65;;;2.45;;
22234;SDS011;11286;45.596;5.284;2023-04-08T13:25:42;4.78;;;2.53;;
22234;SDS011;11286;45.596;5.284;2023-04-08T13:28:07;2.38;;;2.17;;
22234;SDS011;11286;45.596;5.284;2023-04-08T13:30:33;2.50;;;2.30;;
22234;SDS011;11286;45.596;5.284;2023-04-08T13:32:59;2.35;;;2.15;;
22234;SDS011;11286;45.596;5.284;2023-04-08T13:35:24;2.00;;;1.90;;
22234;SDS011;11286;45.596;5.284;2023-04-08T13:37:51;2.17;;;1.98;;
22234;SDS011;11286;45.596;5.284;2023-04-08T13:40:16;2.60;;;2.30;;
22234;SDS011;11286;45.596;5.284;2023-04-08T13:42:42;2.45;;;2.25;;
22234;SDS011;11286;45.596;5.284;2023-04-08T13:45:07;2.60;;;2.38;;
22234;SDS011;11286;45.596;5.284;2023-04-08T13:47:33;2.75;;;2.53;;
22234;SDS011;11286;45.596;5.284;2023-04-08T13:49:59;2.70;;;2.40;;
22234;SDS011;11286;45.596;5.284;2023-04-08T13:52:25;2.25;;;2.00;;
22234;SDS011;11286;45.596;5.284;2023-04-08T13:54:51;2.00;;;1.90;;
22234;SDS011;11286;45.596;5.284;2023-04-08T13:57:17;2.40;;;2.20;;
22234;SDS011;11286;45.596;5.284;2023-04-08T13:59:42;2.55;;;1.90;;
22234;SDS011;11286;45.596;5.284;2023-04-08T14:02:08;2.20;;;2.00;;
22234;SDS011;11286;45.596;5.284;2023-04-08T14:04:33;2.70;;;2.00;;
22234;SDS011;11286;45.596;5.284;2023-04-08T14:06:59;3.15;;;2.28;;
22234;SDS011;11286;45.596;5.284;2023-04-08T14:09:25;2.28;;;2.08;;
22234;SDS011;11286;45.596;5.284;2023-04-08T14:11:50;2.30;;;2.10;;
22234;SDS011;11286;45.596;5.284;2023-04-08T14:14:16;2.33;;;2.13;;
22234;SDS011;11286;45.596;5.284;2023-04-08T14:16:42;2.78;;;1.80;;
22234;SDS011;11286;45.596;5.284;2023-04-08T14:19:07;2.22;;;2.03;;
22234;SDS011;11286;45.596;5.284;2023-04-08T14:21:33;1.80;;;1.70;;
22234;SDS011;11286;45.596;5.284;2023-04-08T14:23:59;2.15;;;1.83;;
22234;SDS011;11286;45.596;5.284;2023-04-08T14:26:25;2.30;;;2.03;;
22234;SDS011;11286;45.596;5.284;2023-04-08T14:28:51;1.70;;;1.60;;
22234;SDS011;11286;45.596;5.284;2023-04-08T14:31:16;3.80;;;2.08;;
22234;SDS011;11286;45.596;5.284;2023-04-08T14:33:42;1.90;;;1.80;;
22234;SDS011;11286;45.596;5.284;2023-04-08T14:36:08;2.28;;;2.03;;
22234;SDS011;11286;45.596;5.284;2023-04-08T14:38:34;2.28;;;1.95;;
22234;SDS011;11286;45.596;5.284;2023-04-08T14:41:00;2.20;;;1.88;;
22234;SDS011;11286;45.596;5.284;2023-04-08T14:43:26;2.67;;;2.22;;
22234;SDS011;11286;45.596;5.284;2023-04-08T14:45:51;2.28;;;2.08;;
22234;SDS011;11286;45.596;5.284;2023-04-08T14:48:17;2.40;;;2.20;;
22234;SDS011;11286;45.596;5.284;2023-04-08T14:50:43;3.55;;;2.20;;
22234;SDS011;11286;45.596;5.284;2023-04-08T14:53:09;2.38;;;2.08;;
22234;SDS011;11286;45.596;5.284;2023-04-08T14:55:35;2.20;;;2.00;;
22234;SDS011;11286;45.596;5.284;2023-04-08T14:58:01;2.13;;;1.92;;
22234;SDS011;11286;45.596;5.284;2023-04-08T15:00:27;2.33;;;1.80;;
22234;SDS011;11286;45.596;5.284;2023-04-08T15:02:52;2.45;;;1.90;;
22234;SDS011;11286;45.596;5.284;2023-04-08T15:05:18;2.17;;;1.98;;
22234;SDS011;11286;45.596;5.284;2023-04-08T15:07:44;1.70;;;1.60;;